Close Search

Base
°C
Summit
°C

WEATHER AT A GLANCE

Image Slideshow

RMR Village

Revelstoke Mountain Resort -  RMR Village Webcam

Top of The Stoke

Revelstoke Mountain Resort -  Top of The Stoke Webcam

Top of Stellar

Revelstoke Mountain Resort -  Top of Stellar Webcam

Mackenzie Outpost

Revelstoke Mountain Resort -  Mackenzie Outpost Webcam

Ripper

Revelstoke Mountain Resort -  Ripper Webcam
Base
°C
Summit
°C
Wind (Summit)
km/h

Today's Forecast

Subpeak Weather

Time Avg. Air Temp Dew Point Avg. Rel Humidity Avg. 2 Min Wind Speed Max Gust Velocity MGV Time MGV Direction Avg. Spot Wind Velocity
2026-05-07 13:50:004° C-2° C63%5 km/h15 km/h13:48:00NW8 km/h
12:50:004° C-1° C72%12 km/h14 km/h12:48:00NW9 km/h
11:50:004° C-1° C73%2 km/h8 km/h11:48:00NW2 km/h
10:50:002° C0° C88%8 km/h10 km/h10:47:00NE8 km/h
09:50:001° C1° C100%8 km/h10 km/h09:47:00NW9 km/h
08:50:001° C1° C100%8 km/h13 km/h08:48:00W9 km/h
07:50:000° C0° C100%12 km/h16 km/h07:46:00NW11 km/h
06:50:001° C1° C100%16 km/h22 km/h06:48:00NW16 km/h
05:50:001° C1° C100%17 km/h22 km/h05:48:00NW15 km/h
04:50:002° C2° C100%14 km/h18 km/h04:47:00W14 km/h
03:50:002° C2° C100%22 km/h24 km/h03:50:00NW19 km/h
02:50:002° C2° C100%19 km/h27 km/h02:47:00NW19 km/h
01:50:003° C2° C93%24 km/h31 km/h01:48:00W26 km/h
00:50:003° C1° C85%25 km/h28 km/h00:49:00W24 km/h
23:50:004° C1° C78%23 km/h27 km/h23:48:00W23 km/h
22:50:004° C1° C77%19 km/h26 km/h22:47:00W20 km/h
21:50:004° C0° C75%20 km/h21 km/h21:50:00W19 km/h
20:50:004° C1° C78%19 km/h25 km/h20:46:00NW18 km/h
19:50:003° C3° C99%17 km/h27 km/h19:46:00NW20 km/h
18:50:008° C-1° C53%9 km/h12 km/h18:49:00NW9 km/h
17:50:008° C-1° C53%10 km/h15 km/h17:47:00W10 km/h
16:50:008° C-1° C55%15 km/h21 km/h16:46:00SW18 km/h
15:50:008° C-0° C57%13 km/h17 km/h15:46:00SW10 km/h
14:50:007° C-0° C60%16 km/h20 km/h14:50:00SW15 km/h

Time Avg. Air Temp Dew Point Avg. Rel Humidity Avg. 2 Min Wind Speed Max Gust Velocity MGV Time MGV Direction Avg. Spot Wind Velocity
2026-05-07 13:50:004° C-2° C63%5 km/h15 km/h13:48:00NW8 km/h
13:45:004° C-2° C60%7 km/h11 km/h13:45:00NW4 km/h
13:40:004° C-3° C63%8 km/h16 km/h13:37:00NW8 km/h
13:35:004° C-2° C65%9 km/h18 km/h13:32:00NW11 km/h
13:30:004° C-2° C66%5 km/h12 km/h13:30:00N6 km/h
13:25:004° C-2° C63%8 km/h11 km/h13:25:00N8 km/h
13:20:004° C-2° C64%7 km/h13 km/h13:17:00W9 km/h
13:15:004° C-2° C66%5 km/h10 km/h13:15:00W5 km/h
13:10:004° C-2° C66%9 km/h15 km/h13:08:00NW6 km/h
13:05:003° C-3° C64%5 km/h11 km/h13:02:00NW6 km/h
13:00:003° C-3° C65%6 km/h12 km/h12:56:00N5 km/h
12:55:003° C-3° C67%11 km/h15 km/h12:53:00NW10 km/h
12:50:004° C-1° C72%12 km/h14 km/h12:48:00NW9 km/h

We value your privacy
We use cookies to enhance your browsing experience, serve personalized ads or content, and analyze our traffic. By clicking "Allow Cookies", you consent to our use of cookies. For additional details view our Privacy Policy.
Cookie preferences

You can control how your data is used on our website. Learn more below about the cookies we use by reviewing our Privacy Policy.

Your cookie preferences have been saved.